createdAt,value
2018-03-26T00:00:52.806Z,8.71
2018-03-26T00:01:52.918Z,8.60
2018-03-26T00:02:52.764Z,8.61
2018-03-26T00:03:53.729Z,8.60
2018-03-26T00:04:53.433Z,8.60
2018-03-26T00:05:52.770Z,8.63
2018-03-26T00:06:52.671Z,8.61
2018-03-26T00:07:52.716Z,8.66
2018-03-26T00:08:52.665Z,8.64
2018-03-26T00:09:52.599Z,8.63
2018-03-26T00:10:52.577Z,8.64
2018-03-26T00:11:52.555Z,8.63
2018-03-26T00:12:52.537Z,8.53
2018-03-26T00:13:52.513Z,8.50
2018-03-26T00:14:52.488Z,8.54
2018-03-26T00:15:52.462Z,8.54
2018-03-26T00:16:52.442Z,8.42
2018-03-26T00:17:52.417Z,8.42
2018-03-26T00:18:52.393Z,8.52
2018-03-26T00:19:52.372Z,8.42
2018-03-26T00:20:52.348Z,8.44
2018-03-26T00:21:52.332Z,8.45
2018-03-26T00:22:52.301Z,8.42
2018-03-26T00:23:52.287Z,8.45
2018-03-26T00:24:52.256Z,8.42
2018-03-26T00:25:52.265Z,8.44
2018-03-26T00:26:52.211Z,8.50
2018-03-26T00:27:52.185Z,8.32
2018-03-26T00:28:52.165Z,8.50
2018-03-26T00:29:52.141Z,8.44
2018-03-26T00:30:52.115Z,8.46
2018-03-26T00:31:52.095Z,8.46
2018-03-26T00:32:52.072Z,8.42
2018-03-26T00:33:52.048Z,8.32
2018-03-26T00:34:52.081Z,8.32
2018-03-26T00:35:52.002Z,8.39
2018-03-26T00:36:51.983Z,8.39
2018-03-26T00:37:51.954Z,8.39
2018-03-26T00:38:51.930Z,8.36
2018-03-26T00:39:51.914Z,8.32
2018-03-26T00:40:51.885Z,8.46
2018-03-26T00:41:51.864Z,8.27
2018-03-26T00:42:51.840Z,8.26
2018-03-26T00:43:51.819Z,8.36
2018-03-26T00:44:51.792Z,8.36
2018-03-26T00:45:51.776Z,8.27
2018-03-26T00:46:51.748Z,8.36
2018-03-26T00:47:51.732Z,8.31
2018-03-26T00:48:51.698Z,8.27
2018-03-26T00:49:51.681Z,8.24
2018-03-26T00:50:51.656Z,8.28
2018-03-26T00:51:51.630Z,8.24
2018-03-26T00:52:51.607Z,8.34
2018-03-26T00:53:51.586Z,8.20
2018-03-26T00:54:51.617Z,8.21
2018-03-26T00:55:51.540Z,8.17
2018-03-26T00:56:51.514Z,8.26
2018-03-26T00:57:51.493Z,8.21
2018-03-26T00:58:51.478Z,8.28
2018-03-26T00:59:51.444Z,8.23
2018-03-26T01:00:51.422Z,8.27
2018-03-26T01:01:51.397Z,8.28
2018-03-26T01:02:51.377Z,8.20
2018-03-26T01:03:51.354Z,8.24
2018-03-26T01:04:51.327Z,8.09
2018-03-26T01:05:51.360Z,8.21
2018-03-26T01:06:51.312Z,8.17
2018-03-26T01:07:51.264Z,8.23
2018-03-26T01:08:51.247Z,8.05
2018-03-26T01:09:51.212Z,8.18
2018-03-26T01:10:51.257Z,8.16
2018-03-26T01:11:51.169Z,8.03
2018-03-26T01:12:51.437Z,8.08
2018-03-26T01:13:51.145Z,8.03
2018-03-26T01:14:51.298Z,8.06
2018-03-26T01:15:51.074Z,8.14
2018-03-26T01:16:51.052Z,8.05
2018-03-26T01:17:51.027Z,8.13
2018-03-26T01:18:51.018Z,8.06
2018-03-26T01:19:51.000Z,8.09
2018-03-26T01:20:50.956Z,8.01
2018-03-26T01:21:50.935Z,8.05
2018-03-26T01:22:50.909Z,8.03
2018-03-26T01:23:50.886Z,8.05
2018-03-26T01:24:51.713Z,7.99
2018-03-26T01:25:50.841Z,8.09
2018-03-26T01:26:50.815Z,8.02
2018-03-26T01:27:53.482Z,7.99
2018-03-26T01:28:50.769Z,8.09
2018-03-26T01:29:50.745Z,8.08
2018-03-26T01:30:50.724Z,8.03
2018-03-26T01:31:50.698Z,8.06
2018-03-26T01:32:50.674Z,7.99
2018-03-26T01:33:50.650Z,8.01
2018-03-26T01:34:50.630Z,7.98
2018-03-26T01:35:50.605Z,7.90
2018-03-26T01:36:50.581Z,7.90
2018-03-26T01:37:50.560Z,7.93
2018-03-26T01:38:50.540Z,7.90
2018-03-26T01:39:50.620Z,7.91
2018-03-26T01:40:50.510Z,7.96
2018-03-26T01:41:50.469Z,7.95
2018-03-26T01:42:50.440Z,7.91
2018-03-26T01:43:50.417Z,7.91
2018-03-26T01:44:50.399Z,7.91
2018-03-26T01:45:50.369Z,7.87
2018-03-26T01:46:50.351Z,7.88
2018-03-26T01:47:50.327Z,7.84
2018-03-26T01:48:50.301Z,7.83
2018-03-26T01:49:50.277Z,7.87
2018-03-26T01:50:50.257Z,7.84
2018-03-26T01:51:50.702Z,7.84
2018-03-26T01:52:50.212Z,7.83
2018-03-26T01:53:50.185Z,7.84
2018-03-26T01:54:50.158Z,7.80
2018-03-26T01:55:50.138Z,7.81
2018-03-26T01:56:50.112Z,7.81
2018-03-26T01:57:50.088Z,7.75
2018-03-26T01:58:50.073Z,7.75
2018-03-26T01:59:50.049Z,7.80
2018-03-26T02:00:50.030Z,7.78
2018-03-26T02:01:50.005Z,7.77
2018-03-26T02:02:49.972Z,7.70
2018-03-26T02:03:49.949Z,7.78
2018-03-26T02:04:49.924Z,7.67
2018-03-26T02:05:49.900Z,7.66
2018-03-26T02:06:49.876Z,7.70
2018-03-26T02:07:49.856Z,7.66
2018-03-26T02:08:49.829Z,7.72
2018-03-26T02:09:49.807Z,7.64
2018-03-26T02:10:49.894Z,7.74
2018-03-26T02:11:49.761Z,7.66
2018-03-26T02:12:49.740Z,7.77
2018-03-26T02:13:49.722Z,7.66
2018-03-26T02:14:49.711Z,7.66
2018-03-26T02:15:49.664Z,7.74
2018-03-26T02:16:49.639Z,7.67
2018-03-26T02:17:49.617Z,7.70
2018-03-26T02:18:49.595Z,7.69
2018-03-26T02:19:49.571Z,7.67
2018-03-26T02:20:49.544Z,7.70
2018-03-26T02:21:49.522Z,7.74
2018-03-26T02:22:49.498Z,7.72
2018-03-26T02:23:49.481Z,7.64
2018-03-26T02:24:49.453Z,7.69
2018-03-26T02:25:49.428Z,7.77
2018-03-26T02:26:49.408Z,7.70
2018-03-26T02:27:49.389Z,7.64
2018-03-26T02:28:49.358Z,7.66
2018-03-26T02:29:49.335Z,7.61
2018-03-26T02:30:49.311Z,7.67
2018-03-26T02:31:49.286Z,7.67
2018-03-26T02:32:49.270Z,7.67
2018-03-26T02:33:49.239Z,7.66
2018-03-26T02:34:49.226Z,7.69
2018-03-26T02:35:49.200Z,7.67
2018-03-26T02:36:49.171Z,7.75
2018-03-26T02:37:49.145Z,7.64
2018-03-26T02:38:49.120Z,7.64
2018-03-26T02:39:49.145Z,7.61
2018-03-26T02:40:49.083Z,7.59
2018-03-26T02:41:49.077Z,7.59
2018-03-26T02:42:49.033Z,7.67
2018-03-26T02:43:49.001Z,7.56
2018-03-26T02:44:48.977Z,7.72
2018-03-26T02:45:48.959Z,7.69
2018-03-26T02:46:49.025Z,7.62
2018-03-26T02:47:48.904Z,7.69
2018-03-26T02:48:48.922Z,7.64
2018-03-26T02:49:48.863Z,7.61
2018-03-26T02:50:48.888Z,7.58
2018-03-26T02:51:48.812Z,7.58
2018-03-26T02:52:48.790Z,7.58
2018-03-26T02:53:48.766Z,7.61
2018-03-26T02:54:48.742Z,7.59
2018-03-26T02:55:48.717Z,7.55
2018-03-26T02:56:48.691Z,7.64
2018-03-26T02:57:48.671Z,7.51
2018-03-26T02:58:48.653Z,7.51
2018-03-26T02:59:48.622Z,7.48
2018-03-26T03:00:48.599Z,7.48
2018-03-26T03:01:48.573Z,7.46
2018-03-26T03:02:48.560Z,7.48
2018-03-26T03:03:48.526Z,7.47
2018-03-26T03:04:48.501Z,7.47
2018-03-26T03:05:48.480Z,7.47
2018-03-26T03:06:48.473Z,7.56
2018-03-26T03:07:48.435Z,7.41
2018-03-26T03:08:48.407Z,7.53
2018-03-26T03:09:48.391Z,7.46
2018-03-26T03:10:48.359Z,7.51
2018-03-26T03:11:48.469Z,7.51
2018-03-26T03:12:48.312Z,7.47
2018-03-26T03:13:48.288Z,7.44
2018-03-26T03:14:48.264Z,7.48
2018-03-26T03:15:48.290Z,7.44
2018-03-26T03:16:48.218Z,7.46
2018-03-26T03:17:48.200Z,7.41
2018-03-26T03:18:48.167Z,7.39
2018-03-26T03:19:48.178Z,7.44
2018-03-26T03:20:48.121Z,7.41
2018-03-26T03:21:48.098Z,7.46
2018-03-26T03:22:48.082Z,7.37
2018-03-26T03:23:48.669Z,7.36
2018-03-26T03:24:48.028Z,7.31
2018-03-26T03:25:48.003Z,7.36
2018-03-26T03:26:47.980Z,7.37
2018-03-26T03:27:47.954Z,7.39
2018-03-26T03:28:47.933Z,7.32
2018-03-26T03:29:47.914Z,7.32
2018-03-26T03:30:47.898Z,7.36
2018-03-26T03:31:47.860Z,7.28
2018-03-26T03:32:47.839Z,7.32
2018-03-26T03:33:47.816Z,7.31
2018-03-26T03:34:47.790Z,7.32
2018-03-26T03:35:47.764Z,7.32
2018-03-26T03:36:47.750Z,7.33
2018-03-26T03:37:47.719Z,7.33
2018-03-26T03:38:47.690Z,7.32
2018-03-26T03:39:47.680Z,7.25
2018-03-26T03:40:47.656Z,7.29
2018-03-26T03:41:47.621Z,7.29
2018-03-26T03:42:47.614Z,7.33
2018-03-26T03:43:47.620Z,7.29
2018-03-26T03:44:47.548Z,7.31
2018-03-26T03:45:47.524Z,7.26
2018-03-26T03:46:47.511Z,7.28
2018-03-26T03:47:50.020Z,7.32
2018-03-26T03:48:47.465Z,7.23
2018-03-26T03:49:47.435Z,7.23
2018-03-26T03:50:47.419Z,7.22
2018-03-26T03:51:49.041Z,7.21
2018-03-26T03:52:47.365Z,7.21
2018-03-26T03:53:47.334Z,7.21
2018-03-26T03:54:47.320Z,7.21
2018-03-26T03:55:47.291Z,7.14
2018-03-26T03:56:47.261Z,7.14
2018-03-26T03:57:47.252Z,7.21
2018-03-26T03:58:47.225Z,7.23
2018-03-26T03:59:49.033Z,7.18
2018-03-26T04:00:47.190Z,7.19
2018-03-26T04:01:47.142Z,7.21
2018-03-26T04:02:47.119Z,7.18
2018-03-26T04:03:47.102Z,7.21
2018-03-26T04:04:47.068Z,7.15
2018-03-26T04:05:47.055Z,7.14
2018-03-26T04:06:47.019Z,7.15
2018-03-26T04:07:46.995Z,7.19
2018-03-26T04:08:46.975Z,7.13
2018-03-26T04:09:46.950Z,7.21
2018-03-26T04:10:46.931Z,7.15
2018-03-26T04:11:46.899Z,7.14
2018-03-26T04:12:46.877Z,7.14
2018-03-26T04:13:46.853Z,7.11
2018-03-26T04:14:46.831Z,7.13
2018-03-26T04:15:46.811Z,7.13
2018-03-26T04:16:46.797Z,7.10
2018-03-26T04:17:46.756Z,7.08
2018-03-26T04:18:46.735Z,7.07
2018-03-26T04:19:46.710Z,7.08
2018-03-26T04:20:46.684Z,7.07
2018-03-26T04:21:46.662Z,7.08
2018-03-26T04:22:46.637Z,7.11
2018-03-26T04:23:46.611Z,7.10
2018-03-26T04:24:46.648Z,7.07
2018-03-26T04:25:46.571Z,7.08
2018-03-26T04:26:46.540Z,7.05
2018-03-26T04:27:46.514Z,7.04
2018-03-26T04:28:46.493Z,7.05
2018-03-26T04:29:46.468Z,7.07
2018-03-26T04:30:46.445Z,7.04
2018-03-26T04:31:46.420Z,7.04
2018-03-26T04:32:46.395Z,7.10
2018-03-26T04:33:46.369Z,7.03
2018-03-26T04:34:46.345Z,7.04
2018-03-26T04:35:46.322Z,7.00
2018-03-26T04:36:46.299Z,7.03
2018-03-26T04:37:46.274Z,6.93
2018-03-26T04:38:46.265Z,6.93
2018-03-26T04:39:46.323Z,7.07
2018-03-26T04:40:46.202Z,6.89
2018-03-26T04:41:46.195Z,6.95
2018-03-26T04:42:46.151Z,7.00
2018-03-26T04:43:46.127Z,6.92
2018-03-26T04:44:46.108Z,6.93
2018-03-26T04:45:46.081Z,6.93
2018-03-26T04:46:46.055Z,6.96
2018-03-26T04:47:46.032Z,7.00
2018-03-26T04:48:46.011Z,6.90
2018-03-26T04:49:45.984Z,6.95
2018-03-26T04:50:45.959Z,6.82
2018-03-26T04:51:45.937Z,6.82
2018-03-26T04:52:45.912Z,6.83
2018-03-26T04:53:45.890Z,6.80
2018-03-26T04:54:45.861Z,6.83
2018-03-26T04:55:46.660Z,6.86
2018-03-26T04:56:45.815Z,6.80
2018-03-26T04:57:45.789Z,6.80
2018-03-26T04:58:45.786Z,6.80
2018-03-26T04:59:45.743Z,6.78
2018-03-26T05:00:45.717Z,6.85
2018-03-26T05:01:45.744Z,6.71
2018-03-26T05:02:45.668Z,6.71
2018-03-26T05:03:45.647Z,6.75
2018-03-26T05:04:45.654Z,6.68
2018-03-26T05:05:45.596Z,6.70
2018-03-26T05:06:45.574Z,6.70
2018-03-26T05:07:45.547Z,6.68
2018-03-26T05:08:45.596Z,6.70
2018-03-26T05:09:45.502Z,6.74
2018-03-26T05:10:45.477Z,6.67
2018-03-26T05:11:45.451Z,6.75
2018-03-26T05:12:45.499Z,6.71
2018-03-26T05:13:45.445Z,6.72
2018-03-26T05:14:45.377Z,6.75
2018-03-26T05:15:45.354Z,6.71
2018-03-26T05:16:45.357Z,6.71
2018-03-26T05:17:45.369Z,6.68
2018-03-26T05:18:45.318Z,6.70
2018-03-26T05:19:45.278Z,6.74
2018-03-26T05:20:45.294Z,6.72
2018-03-26T05:21:45.208Z,6.71
2018-03-26T05:22:45.256Z,6.64
2018-03-26T05:23:45.176Z,6.62
2018-03-26T05:24:45.222Z,6.68
2018-03-26T05:25:45.175Z,6.67
2018-03-26T05:26:45.086Z,6.64
2018-03-26T05:27:45.087Z,6.64
2018-03-26T05:28:45.049Z,6.60
2018-03-26T05:29:45.011Z,6.70
2018-03-26T05:30:44.984Z,6.65
2018-03-26T05:31:44.961Z,6.70
2018-03-26T05:32:44.937Z,6.64
2018-03-26T05:33:44.916Z,6.57
2018-03-26T05:34:44.897Z,6.64
2018-03-26T05:35:44.863Z,6.62
2018-03-26T05:36:44.848Z,6.56
2018-03-26T05:37:44.817Z,6.62
2018-03-26T05:38:44.793Z,6.56
2018-03-26T05:39:44.770Z,6.56
2018-03-26T05:40:44.744Z,6.59
2018-03-26T05:41:44.739Z,6.54
2018-03-26T05:42:44.698Z,6.60
2018-03-26T05:43:44.669Z,6.52
2018-03-26T05:44:44.697Z,6.54
2018-03-26T05:45:44.620Z,6.49
2018-03-26T05:46:44.597Z,6.59
2018-03-26T05:47:44.575Z,6.57
2018-03-26T05:48:44.603Z,6.53
2018-03-26T05:49:44.523Z,6.47
2018-03-26T05:50:44.501Z,6.56
2018-03-26T05:51:44.487Z,6.57
2018-03-26T05:52:46.104Z,6.50
2018-03-26T05:53:44.467Z,6.54
2018-03-26T05:54:44.409Z,6.53
2018-03-26T05:55:45.200Z,6.56
2018-03-26T05:56:44.352Z,6.50
2018-03-26T05:57:44.329Z,6.47
2018-03-26T05:58:44.308Z,6.56
2018-03-26T05:59:44.278Z,6.47
2018-03-26T06:00:44.257Z,6.57
2018-03-26T06:01:44.231Z,6.56
2018-03-26T06:02:44.218Z,6.54
2018-03-26T06:03:44.180Z,6.59
2018-03-26T06:04:44.156Z,6.57
2018-03-26T06:05:44.131Z,6.54
2018-03-26T06:06:44.108Z,6.59
2018-03-26T06:07:44.084Z,6.54
2018-03-26T06:08:44.063Z,6.59
2018-03-26T06:09:44.061Z,6.57
2018-03-26T06:10:44.050Z,6.52
2018-03-26T06:11:43.985Z,6.52
2018-03-26T06:12:43.966Z,6.57
2018-03-26T06:13:43.939Z,6.53
2018-03-26T06:14:43.911Z,6.56
2018-03-26T06:15:43.892Z,6.54
2018-03-26T06:16:43.862Z,6.60
2018-03-26T06:17:43.838Z,6.46
2018-03-26T06:18:43.813Z,6.59
2018-03-26T06:19:43.789Z,6.56
2018-03-26T06:20:43.766Z,6.49
2018-03-26T06:21:43.739Z,6.50
2018-03-26T06:22:43.720Z,6.47
2018-03-26T06:23:43.691Z,6.41
2018-03-26T06:24:43.726Z,6.36
2018-03-26T06:25:44.023Z,6.39
2018-03-26T06:26:43.621Z,6.38
2018-03-26T06:27:43.594Z,6.39
2018-03-26T06:28:43.568Z,6.35
2018-03-26T06:29:43.549Z,6.41
2018-03-26T06:30:43.549Z,6.44
2018-03-26T06:31:43.494Z,6.44
2018-03-26T06:32:43.481Z,6.36
2018-03-26T06:33:43.446Z,6.36
2018-03-26T06:34:43.426Z,6.35
2018-03-26T06:35:43.394Z,6.29
2018-03-26T06:36:43.372Z,6.36
2018-03-26T06:37:43.384Z,6.39
2018-03-26T06:38:43.322Z,6.32
2018-03-26T06:39:43.300Z,6.39
2018-03-26T06:40:43.283Z,6.39
2018-03-26T06:41:43.250Z,6.38
2018-03-26T06:42:43.224Z,6.38
2018-03-26T06:43:43.198Z,6.35
2018-03-26T06:44:43.177Z,6.49
2018-03-26T06:45:43.157Z,6.47
2018-03-26T06:46:43.141Z,6.47
2018-03-26T06:47:43.104Z,6.57
2018-03-26T06:48:43.112Z,6.62
2018-03-26T06:49:43.055Z,6.54
2018-03-26T06:50:43.050Z,6.56
2018-03-26T06:51:43.031Z,6.54
2018-03-26T06:52:42.979Z,6.53
2018-03-26T06:53:42.956Z,6.54
2018-03-26T06:54:42.928Z,6.49
2018-03-26T06:55:42.907Z,6.47
2018-03-26T06:56:42.915Z,6.34
2018-03-26T06:57:42.857Z,6.41
2018-03-26T06:58:42.832Z,6.35
2018-03-26T06:59:42.821Z,6.35
2018-03-26T07:00:42.788Z,6.43
2018-03-26T07:01:42.768Z,6.47
2018-03-26T07:02:42.735Z,6.47
2018-03-26T07:03:42.710Z,6.41
2018-03-26T07:04:42.689Z,6.39
2018-03-26T07:05:42.663Z,6.44
2018-03-26T07:06:42.647Z,6.34
2018-03-26T07:07:42.714Z,6.29
2018-03-26T07:08:42.589Z,6.38
2018-03-26T07:09:42.564Z,6.32
2018-03-26T07:10:42.541Z,6.28
2018-03-26T07:11:42.518Z,6.20
2018-03-26T07:12:42.495Z,6.29
2018-03-26T07:13:42.471Z,6.32
2018-03-26T07:14:42.444Z,6.29
2018-03-26T07:15:42.416Z,6.28
2018-03-26T07:16:42.396Z,6.29
2018-03-26T07:17:42.366Z,6.29
2018-03-26T07:18:42.370Z,6.26
2018-03-26T07:19:42.326Z,6.29
2018-03-26T07:20:42.292Z,6.22
2018-03-26T07:21:42.299Z,6.28
2018-03-26T07:22:42.244Z,6.28
2018-03-26T07:23:42.224Z,6.29
2018-03-26T07:24:42.208Z,6.35
2018-03-26T07:25:42.178Z,6.38
2018-03-26T07:26:42.145Z,6.38
2018-03-26T07:27:42.177Z,6.35
2018-03-26T07:28:42.155Z,6.39
2018-03-26T07:29:42.090Z,6.41
2018-03-26T07:30:42.105Z,6.39
2018-03-26T07:31:42.034Z,6.44
2018-03-26T07:32:42.018Z,6.39
2018-03-26T07:33:41.985Z,6.41
2018-03-26T07:34:41.987Z,6.39
2018-03-26T07:35:41.927Z,6.32
2018-03-26T07:36:41.902Z,6.39
2018-03-26T07:37:41.920Z,6.49
2018-03-26T07:38:41.851Z,6.47
2018-03-26T07:39:41.842Z,6.57
2018-03-26T07:40:41.806Z,6.54
2018-03-26T07:41:41.778Z,6.50
2018-03-26T07:42:41.752Z,6.49
2018-03-26T07:43:41.729Z,6.36
2018-03-26T07:44:41.704Z,6.38
2018-03-26T07:45:41.687Z,6.44
2018-03-26T07:46:41.657Z,6.41
2018-03-26T07:47:41.631Z,6.43
2018-03-26T07:48:41.617Z,6.36
2018-03-26T07:49:41.584Z,6.43
2018-03-26T07:50:41.556Z,6.46
2018-03-26T07:51:41.533Z,6.41
2018-03-26T07:52:41.512Z,6.46
2018-03-26T07:53:41.483Z,6.49
2018-03-26T07:54:41.463Z,6.62
2018-03-26T07:55:41.436Z,6.54
2018-03-26T07:56:41.438Z,6.57
2018-03-26T07:57:41.989Z,6.56
2018-03-26T07:58:41.368Z,6.68
2018-03-26T07:59:41.337Z,6.65
2018-03-26T08:00:41.322Z,6.72
2018-03-26T08:01:41.289Z,6.65
2018-03-26T08:02:41.265Z,6.74
2018-03-26T08:03:41.243Z,6.65
2018-03-26T08:04:41.216Z,6.71
2018-03-26T08:05:41.192Z,6.65
2018-03-26T08:06:41.165Z,6.65
2018-03-26T08:07:41.257Z,6.65
2018-03-26T08:08:41.119Z,6.68
2018-03-26T08:09:41.179Z,6.72
2018-03-26T08:10:41.074Z,6.77
2018-03-26T08:11:41.048Z,6.85
2018-03-26T08:12:41.023Z,6.85
2018-03-26T08:13:40.997Z,6.90
2018-03-26T08:14:40.993Z,6.95
2018-03-26T08:15:40.954Z,7.05
2018-03-26T08:16:40.926Z,7.07
2018-03-26T08:17:40.901Z,7.08
2018-03-26T08:18:40.885Z,7.15
2018-03-26T08:19:40.854Z,7.13
2018-03-26T08:20:40.838Z,7.04
2018-03-26T08:21:40.811Z,7.11
2018-03-26T08:22:40.782Z,7.05
2018-03-26T08:23:40.760Z,7.04
2018-03-26T08:24:40.742Z,7.04
2018-03-26T08:25:40.714Z,6.93
2018-03-26T08:26:40.698Z,6.93
2018-03-26T08:27:40.668Z,6.95
2018-03-26T08:28:40.644Z,6.89
2018-03-26T08:29:40.624Z,6.80
2018-03-26T08:30:40.593Z,6.95
2018-03-26T08:31:40.572Z,6.96
2018-03-26T08:32:40.584Z,7.04
2018-03-26T08:33:40.524Z,7.10
2018-03-26T08:34:40.537Z,7.23
2018-03-26T08:35:40.525Z,7.19
2018-03-26T08:36:40.452Z,7.21
2018-03-26T08:37:40.452Z,7.26
2018-03-26T08:38:40.403Z,7.25
2018-03-26T08:39:40.385Z,7.22
2018-03-26T08:40:40.430Z,7.21
2018-03-26T08:41:40.395Z,7.25
2018-03-26T08:42:40.310Z,7.31
2018-03-26T08:43:40.289Z,7.33
2018-03-26T08:44:40.306Z,7.37
2018-03-26T08:45:40.241Z,7.31
2018-03-26T08:46:40.221Z,7.39
2018-03-26T08:47:40.197Z,7.44
2018-03-26T08:48:40.174Z,7.44
2018-03-26T08:49:40.455Z,7.39
2018-03-26T08:50:40.125Z,7.40
2018-03-26T08:51:40.105Z,7.46
2018-03-26T08:52:40.080Z,7.36
2018-03-26T08:53:40.066Z,7.31
2018-03-26T08:54:40.032Z,7.36
2018-03-26T08:55:40.100Z,7.41
2018-03-26T08:56:39.987Z,7.39
2018-03-26T08:57:40.495Z,7.43
2018-03-26T08:58:39.941Z,7.41
2018-03-26T08:59:39.915Z,7.33
2018-03-26T09:00:39.889Z,7.33
2018-03-26T09:01:39.874Z,7.18
2018-03-26T09:02:39.849Z,7.13
2018-03-26T09:03:39.821Z,7.15
2018-03-26T09:04:39.798Z,7.15
2018-03-26T09:05:39.832Z,7.11
2018-03-26T09:06:39.751Z,7.14
2018-03-26T09:07:39.731Z,7.14
2018-03-26T09:08:39.705Z,7.08
2018-03-26T09:09:39.682Z,7.15
2018-03-26T09:10:39.659Z,7.07
2018-03-26T09:11:39.633Z,7.11
2018-03-26T09:12:39.673Z,7.07
2018-03-26T09:13:39.589Z,7.04
2018-03-26T09:14:39.597Z,7.05
2018-03-26T09:15:39.543Z,7.11
2018-03-26T09:16:39.527Z,7.01
2018-03-26T09:17:39.493Z,7.05
2018-03-26T09:18:39.501Z,7.08
2018-03-26T09:19:39.471Z,7.14
2018-03-26T09:20:39.423Z,7.11
2018-03-26T09:21:39.407Z,7.14
2018-03-26T09:22:39.433Z,7.23
2018-03-26T09:23:39.355Z,7.25
2018-03-26T09:24:39.329Z,7.22
2018-03-26T09:25:39.313Z,7.31
2018-03-26T09:26:39.282Z,7.26
2018-03-26T09:27:39.262Z,7.37
2018-03-26T09:28:39.237Z,7.41
2018-03-26T09:29:39.214Z,7.37
2018-03-26T09:30:39.192Z,7.51
2018-03-26T09:31:39.169Z,7.47
2018-03-26T09:32:39.142Z,7.51
2018-03-26T09:33:39.117Z,7.48
2018-03-26T09:34:39.099Z,7.55
2018-03-26T09:35:39.072Z,7.62
2018-03-26T09:36:39.049Z,7.62
2018-03-26T09:37:39.028Z,7.67
2018-03-26T09:38:39.093Z,7.70
2018-03-26T09:39:38.978Z,7.72
2018-03-26T09:40:38.979Z,7.67
2018-03-26T09:41:38.932Z,7.69
2018-03-26T09:42:38.909Z,7.77
2018-03-26T09:43:38.889Z,7.78
2018-03-26T09:44:38.861Z,7.77
2018-03-26T09:45:38.839Z,7.88
2018-03-26T09:46:38.821Z,7.91
2018-03-26T09:47:38.843Z,7.95
2018-03-26T09:48:38.826Z,8.03
2018-03-26T09:49:38.789Z,8.08
2018-03-26T09:50:38.747Z,8.05
2018-03-26T09:51:38.710Z,8.14
2018-03-26T09:52:38.698Z,8.05
2018-03-26T09:53:38.653Z,8.17
2018-03-26T09:54:38.692Z,8.24
2018-03-26T09:55:38.636Z,8.21
2018-03-26T09:56:38.608Z,8.27
2018-03-26T09:57:38.574Z,8.28
2018-03-26T09:58:38.539Z,8.41
2018-03-26T09:59:38.514Z,8.44
2018-03-26T10:00:38.506Z,8.38
2018-03-26T10:01:38.480Z,8.49
2018-03-26T10:02:38.511Z,8.54
2018-03-26T10:03:38.419Z,8.50
2018-03-26T10:04:38.397Z,8.61
2018-03-26T10:05:38.381Z,8.60
2018-03-26T10:06:38.393Z,8.69
2018-03-26T10:07:38.376Z,8.60
2018-03-26T10:08:38.328Z,8.81
2018-03-26T10:09:38.300Z,8.75
2018-03-26T10:10:38.293Z,8.84
2018-03-26T10:11:38.236Z,8.93
2018-03-26T10:12:38.217Z,8.95
2018-03-26T10:13:38.191Z,9.12
2018-03-26T10:14:38.179Z,9.18
2018-03-26T10:15:38.150Z,9.26
2018-03-26T10:16:38.127Z,9.34
2018-03-26T10:17:38.164Z,9.39
2018-03-26T10:18:38.083Z,9.49
2018-03-26T10:19:38.081Z,9.58
2018-03-26T10:20:38.036Z,9.66
2018-03-26T10:21:38.056Z,9.67
2018-03-26T10:22:38.693Z,9.76
2018-03-26T10:23:37.972Z,9.80
2018-03-26T10:24:37.986Z,9.80
2018-03-26T10:25:37.928Z,9.90
2018-03-26T10:26:38.595Z,10.02
2018-03-26T10:27:39.641Z,9.97
2018-03-26T10:28:37.870Z,10.03
2018-03-26T10:29:37.842Z,10.27
2018-03-26T10:30:38.179Z,10.39
2018-03-26T10:31:37.801Z,10.75
2018-03-26T10:32:37.779Z,11.01
2018-03-26T10:33:37.802Z,11.19
2018-03-26T10:34:37.745Z,11.53
2018-03-26T10:35:37.724Z,11.97
2018-03-26T10:36:37.706Z,12.44
2018-03-26T10:37:37.717Z,13.30
2018-03-26T10:38:37.669Z,14.20
2018-03-26T10:39:37.653Z,14.93
2018-03-26T10:40:37.639Z,15.80
2018-03-26T10:41:40.126Z,16.79
2018-03-26T10:42:38.606Z,17.38
2018-03-26T10:43:39.139Z,18.00
2018-03-26T10:44:37.570Z,17.94
2018-03-26T10:45:37.553Z,18.15
2018-03-26T10:46:37.580Z,17.95
2018-03-26T10:47:37.598Z,17.95
2018-03-26T10:48:38.441Z,18.09
2018-03-26T10:49:37.548Z,18.46
2018-03-26T10:50:37.544Z,18.70
2018-03-26T10:51:37.561Z,18.76
2018-03-26T10:52:37.471Z,18.70
2018-03-26T10:53:37.452Z,18.39
2018-03-26T10:54:37.424Z,18.63
2018-03-26T10:55:37.424Z,18.83
2018-03-26T10:56:39.141Z,18.21
2018-03-26T10:57:37.397Z,18.00
2018-03-26T10:58:37.390Z,18.11
2018-03-26T10:59:37.367Z,18.18
2018-03-26T11:00:37.350Z,18.23
2018-03-26T11:01:37.345Z,17.79
2018-03-26T11:02:37.338Z,18.00
2018-03-26T11:03:37.313Z,18.34
2018-03-26T11:04:37.303Z,18.64
2018-03-26T11:05:37.298Z,18.82
2018-03-26T11:06:37.277Z,18.73
2018-03-26T11:07:37.266Z,18.89
2018-03-26T11:08:37.295Z,19.01
2018-03-26T11:09:37.243Z,19.39
2018-03-26T11:10:37.228Z,19.74
2018-03-26T11:11:37.234Z,19.84
2018-03-26T11:12:37.209Z,19.77
2018-03-26T11:13:37.246Z,19.70
2018-03-26T11:14:37.201Z,19.77
2018-03-26T11:15:37.180Z,19.79
2018-03-26T11:16:37.163Z,19.89
2018-03-26T11:17:37.149Z,20.18
2018-03-26T11:18:37.139Z,20.63
2018-03-26T11:19:37.126Z,21.04
2018-03-26T11:20:37.115Z,21.26
2018-03-26T11:21:37.111Z,21.00
2018-03-26T11:22:37.169Z,21.38
2018-03-26T11:23:37.084Z,21.33
2018-03-26T11:24:37.476Z,21.15
2018-03-26T11:25:37.069Z,21.20
2018-03-26T11:26:37.130Z,21.19
2018-03-26T11:27:37.045Z,21.14
2018-03-26T11:28:37.036Z,20.92
2018-03-26T11:29:37.027Z,20.92
2018-03-26T11:30:37.021Z,20.86
2018-03-26T11:31:37.004Z,20.77
2018-03-26T11:32:36.999Z,20.36
2018-03-26T11:33:37.007Z,20.55
2018-03-26T11:34:36.974Z,20.49
2018-03-26T11:35:36.999Z,20.90
2018-03-26T11:36:36.958Z,21.40
2018-03-26T11:37:36.949Z,21.77
2018-03-26T11:38:36.939Z,21.72
2018-03-26T11:39:36.936Z,21.75
2018-03-26T11:40:36.921Z,21.58
2018-03-26T11:41:36.910Z,21.81
2018-03-26T11:42:36.969Z,21.62
2018-03-26T11:43:36.893Z,22.15
2018-03-26T11:44:36.886Z,22.46
2018-03-26T11:45:36.879Z,22.92
2018-03-26T11:46:36.868Z,23.25
2018-03-26T11:47:36.860Z,23.45
2018-03-26T11:48:36.851Z,23.71
2018-03-26T11:49:36.898Z,23.84
2018-03-26T11:50:36.838Z,23.94
2018-03-26T11:51:36.831Z,24.22
2018-03-26T11:52:36.837Z,23.91
2018-03-26T11:53:36.815Z,23.28
2018-03-26T11:54:36.835Z,21.84
2018-03-26T11:55:36.820Z,22.15
2018-03-26T11:56:36.858Z,22.77
2018-03-26T11:57:37.331Z,22.95
2018-03-26T11:58:36.780Z,23.08
2018-03-26T11:59:36.771Z,22.88
2018-03-26T12:00:36.804Z,22.41
2018-03-26T12:01:36.753Z,22.98
2018-03-26T12:02:36.746Z,23.11
2018-03-26T12:03:36.740Z,23.11
2018-03-26T12:04:36.736Z,23.34
2018-03-26T12:05:36.723Z,23.48
2018-03-26T12:06:36.721Z,23.64
2018-03-26T12:07:36.710Z,23.92
2018-03-26T12:08:36.703Z,24.25
2018-03-26T12:09:36.696Z,24.68
2018-03-26T12:10:36.699Z,24.92
2018-03-26T12:11:36.684Z,25.07
2018-03-26T12:12:36.675Z,25.37
2018-03-26T12:13:36.683Z,25.70
2018-03-26T12:14:36.682Z,25.86
2018-03-26T12:15:36.702Z,25.46
2018-03-26T12:16:36.651Z,25.96
2018-03-26T12:17:36.653Z,26.61
2018-03-26T12:18:36.641Z,26.88
2018-03-26T12:19:36.638Z,27.28
2018-03-26T12:20:36.644Z,27.60
2018-03-26T12:21:36.634Z,27.94
2018-03-26T12:22:36.624Z,28.10
2018-03-26T12:23:36.620Z,27.82
2018-03-26T12:24:36.642Z,27.98
2018-03-26T12:25:36.611Z,27.78
2018-03-26T12:26:36.609Z,27.43
2018-03-26T12:27:36.615Z,27.40
2018-03-26T12:28:36.600Z,27.10
2018-03-26T12:29:36.598Z,26.74
2018-03-26T12:30:36.599Z,26.60
2018-03-26T12:31:36.591Z,26.51
2018-03-26T12:32:36.591Z,26.23
2018-03-26T12:33:36.582Z,26.23
2018-03-26T12:34:36.577Z,25.98
2018-03-26T12:35:36.573Z,25.56
2018-03-26T12:36:36.572Z,25.16
2018-03-26T12:37:36.567Z,24.84
2018-03-26T12:38:36.564Z,24.48
2018-03-26T12:39:36.796Z,24.04
2018-03-26T12:40:36.552Z,23.79
2018-03-26T12:41:36.548Z,23.81
2018-03-26T12:42:36.558Z,22.62
2018-03-26T12:43:36.542Z,22.04
2018-03-26T12:44:36.532Z,21.62
2018-03-26T12:45:36.525Z,20.92
2018-03-26T12:46:36.518Z,22.14
2018-03-26T12:47:36.512Z,22.96
2018-03-26T12:48:36.513Z,23.40
2018-03-26T12:49:36.856Z,23.58
2018-03-26T12:50:36.829Z,22.73
2018-03-26T12:51:36.952Z,23.02
2018-03-26T12:52:36.809Z,23.17
2018-03-26T12:53:36.472Z,23.32
2018-03-26T12:54:36.462Z,23.54
2018-03-26T12:55:36.453Z,23.84
2018-03-26T12:56:36.448Z,24.50
2018-03-26T12:57:36.443Z,25.00
2018-03-26T12:58:36.430Z,25.06
2018-03-26T12:59:36.423Z,25.31
2018-03-26T13:00:36.417Z,25.59
2018-03-26T13:01:36.410Z,25.93
2018-03-26T13:02:36.413Z,26.10
2018-03-26T13:03:36.409Z,26.31
2018-03-26T13:04:36.405Z,26.30
2018-03-26T13:05:36.505Z,26.48
2018-03-26T13:06:36.379Z,26.81
2018-03-26T13:07:36.376Z,27.10
2018-03-26T13:08:36.372Z,27.33
2018-03-26T13:09:36.362Z,27.48
2018-03-26T13:10:36.357Z,27.48
2018-03-26T13:11:36.352Z,27.20
2018-03-26T13:12:36.348Z,27.35